Time;durP1;ratioP1;P1;durP2;ratioP2;P2;SDS_P1;SDS_P2;PMS_P1;PMS_P2;Temp;Humidity;BMP_temperature;BMP_pressure;BME280_temperature;BME280_humidity;BME280_pressure;Samples;Min_cycle;Max_cycle;Signal;HPM_P1;HPM_P2
2021/05/23 00:02:06;;;;;;;24.73;23.10;;;;;;;;;;4994857;28;20452;-86
2021/05/23 00:04:33;;;;;;;25.43;23.73;;;;;;;;;;4995058;28;20446;-86
2021/05/23 00:07:00;;;;;;;25.77;23.97;;;;;;;;;;4994905;28;20477;-86
2021/05/23 00:09:27;;;;;;;23.60;22.20;;;;;;;;;;4994550;28;20464;-86
2021/05/23 00:11:54;;;;;;;25.80;24.10;;;;;;;;;;4994674;28;20423;-86
2021/05/23 00:14:22;;;;;;;26.10;24.07;;;;;;;;;;4995548;28;20441;-86
2021/05/23 00:16:49;;;;;;;26.17;24.17;;;;;;;;;;4995001;28;20443;-86
2021/05/23 00:19:18;;;;;;;24.67;22.87;;;;;;;;;;4998164;28;20420;-85
2021/05/23 00:21:45;;;;;;;25.97;24.07;;;;;;;;;;4998768;28;20448;-86
2021/05/23 00:24:12;;;;;;;25.97;24.17;;;;;;;;;;4999087;28;20477;-86
2021/05/23 00:26:39;;;;;;;25.90;24.20;;;;;;;;;;4981831;28;20454;-86
2021/05/23 00:29:06;;;;;;;27.20;25.00;;;;;;;;;;4998801;28;20423;-86
2021/05/23 00:31:33;;;;;;;26.23;23.80;;;;;;;;;;4998820;28;20434;-86
2021/05/23 00:34:00;;;;;;;27.13;25.13;;;;;;;;;;4981451;28;20967;-86
2021/05/23 00:36:28;;;;;;;26.70;24.87;;;;;;;;;;4998837;28;20494;-86
2021/05/23 00:38:55;;;;;;;26.53;24.60;;;;;;;;;;4998781;28;20419;-87
2021/05/23 00:41:22;;;;;;;25.50;23.60;;;;;;;;;;4998715;28;20445;-86
2021/05/23 00:43:49;;;;;;;25.97;24.27;;;;;;;;;;4998648;28;20441;-87
2021/05/23 00:46:17;;;;;;;27.00;25.13;;;;;;;;;;4998479;28;20419;-86
2021/05/23 00:48:43;;;;;;;27.10;25.03;;;;;;;;;;4998423;28;20470;-86
2021/05/23 00:51:10;;;;;;;26.57;24.57;;;;;;;;;;4981016;28;20431;-86
2021/05/23 00:53:38;;;;;;;26.60;24.63;;;;;;;;;;4998215;28;20776;-86
2021/05/23 00:56:05;;;;;;;26.43;24.53;;;;;;;;;;4998410;28;20452;-86
2021/05/23 00:58:32;;;;;;;27.57;25.10;;;;;;;;;;4998720;28;20486;-86
2021/05/23 01:01:14;;;;;;;27.37;24.90;;;;;;;;;;4998458;28;20444;-86
2021/05/23 01:03:57;;;;;;;26.20;24.13;;;;;;;;;;4998262;28;20446;-86
2021/05/23 01:06:24;;;;;;;27.40;25.23;;;;;;;;;;4997804;28;20448;-86
2021/05/23 01:08:52;;;;;;;27.30;25.30;;;;;;;;;;4998066;28;20877;-86
2021/05/23 01:11:38;;;;;;;27.00;24.73;;;;;;;;;;4980769;28;20836;-86
2021/05/23 01:14:18;;;;;;;27.20;24.90;;;;;;;;;;4998048;28;20493;-86
2021/05/23 01:16:47;;;;;;;26.73;24.70;;;;;;;;;;4997982;28;20423;-86
2021/05/23 01:19:16;;;;;;;27.17;25.03;;;;;;;;;;4998050;28;20552;-86
2021/05/23 01:21:45;;;;;;;28.27;25.97;;;;;;;;;;4998249;28;20442;-86
2021/05/23 01:24:18;;;;;;;25.23;23.43;;;;;;;;;;4997872;28;20428;-86
2021/05/23 01:26:52;;;;;;;26.00;23.90;;;;;;;;;;4997479;28;20495;-86
2021/05/23 01:29:19;;;;;;;28.92;26.75;;;;;;;;;;4996935;28;20780;-85
2021/05/23 01:31:47;;;;;;;28.23;25.87;;;;;;;;;;4997319;28;20205;-86
2021/05/23 01:34:16;;;;;;;27.53;25.40;;;;;;;;;;4997299;28;20999;-86
2021/05/23 01:36:43;;;;;;;29.77;27.63;;;;;;;;;;4997768;28;20423;-85
2021/05/23 01:39:12;;;;;;;27.87;25.80;;;;;;;;;;4996985;28;20456;-85
2021/05/23 01:41:39;;;;;;;28.90;26.33;;;;;;;;;;4997329;28;20438;-85
2021/05/23 01:44:08;;;;;;;26.60;24.67;;;;;;;;;;4997818;28;20441;-86
2021/05/23 01:46:35;;;;;;;26.43;24.57;;;;;;;;;;4997164;28;20403;-86
2021/05/23 01:49:02;;;;;;;27.33;25.10;;;;;;;;;;4997052;28;20452;-85
2021/05/23 01:51:29;;;;;;;27.60;25.63;;;;;;;;;;4997330;28;20781;-85
2021/05/23 01:53:56;;;;;;;28.20;26.00;;;;;;;;;;4997281;28;20407;-85
2021/05/23 01:56:23;;;;;;;27.60;25.37;;;;;;;;;;4980330;28;20973;-85
2021/05/23 01:58:50;;;;;;;26.63;24.83;;;;;;;;;;4997309;28;20526;-85
2021/05/23 02:01:17;;;;;;;27.83;25.90;;;;;;;;;;4997220;28;20753;-85
2021/05/23 02:03:44;;;;;;;27.37;24.87;;;;;;;;;;4997084;28;20419;-85
2021/05/23 02:06:11;;;;;;;26.23;24.40;;;;;;;;;;4997183;28;20456;-85
2021/05/23 02:08:39;;;;;;;27.57;25.47;;;;;;;;;;4997026;28;20483;-86
2021/05/23 02:11:07;;;;;;;28.93;26.57;;;;;;;;;;4996956;28;20457;-85
2021/05/23 02:13:34;;;;;;;28.70;26.50;;;;;;;;;;4997022;28;20448;-85
2021/05/23 02:16:04;;;;;;;29.13;26.63;;;;;;;;;;4979886;28;20903;-86
2021/05/23 02:18:33;;;;;;;28.23;26.13;;;;;;;;;;4996908;28;20460;-85
2021/05/23 02:21:01;;;;;;;27.03;25.13;;;;;;;;;;4996433;28;20423;-85
2021/05/23 02:23:28;;;;;;;29.00;26.57;;;;;;;;;;4996714;28;20448;-85
2021/05/23 02:25:55;;;;;;;28.30;26.07;;;;;;;;;;4996570;28;20902;-85
2021/05/23 02:28:22;;;;;;;29.37;26.43;;;;;;;;;;4996302;28;20467;-86
2021/05/23 02:30:50;;;;;;;30.30;28.00;;;;;;;;;;4996582;28;20503;-85
2021/05/23 02:33:18;;;;;;;29.10;26.70;;;;;;;;;;4978829;28;21029;-86
2021/05/23 02:35:47;;;;;;;32.93;30.07;;;;;;;;;;4996516;28;20493;-85
2021/05/23 02:38:15;;;;;;;30.30;28.00;;;;;;;;;;4996468;28;20447;-85
2021/05/23 02:40:42;;;;;;;29.60;27.30;;;;;;;;;;4996425;28;20837;-85
2021/05/23 02:43:10;;;;;;;28.90;26.70;;;;;;;;;;4996365;28;20466;-85
2021/05/23 02:45:37;;;;;;;29.50;27.10;;;;;;;;;;4978864;28;20447;-86
2021/05/23 02:48:05;;;;;;;30.77;28.47;;;;;;;;;;4996032;28;20517;-85
2021/05/23 02:50:33;;;;;;;30.47;27.87;;;;;;;;;;4995874;28;20446;-85
2021/05/23 02:53:01;;;;;;;26.53;24.63;;;;;;;;;;4996353;28;20464;-86
2021/05/23 02:55:28;;;;;;;28.10;25.90;;;;;;;;;;4996246;28;20444;-86
2021/05/23 02:57:55;;;;;;;27.87;25.63;;;;;;;;;;4979041;28;20440;-86
2021/05/23 03:00:23;;;;;;;30.00;27.40;;;;;;;;;;4978579;28;20971;-85
2021/05/23 03:02:50;;;;;;;30.17;27.50;;;;;;;;;;4978558;28;21016;-85
2021/05/23 03:05:18;;;;;;;27.93;25.67;;;;;;;;;;4996073;28;20474;-86
2021/05/23 03:07:47;;;;;;;28.20;25.87;;;;;;;;;;4995601;28;20459;-85
2021/05/23 03:10:15;;;;;;;30.87;27.90;;;;;;;;;;4995724;28;20448;-86
2021/05/23 03:12:42;;;;;;;30.17;27.47;;;;;;;;;;4995873;28;20450;-85
2021/05/23 03:15:11;;;;;;;31.93;29.13;;;;;;;;;;4995399;28;20969;-85
2021/05/23 03:17:38;;;;;;;33.60;30.30;;;;;;;;;;4995759;28;20431;-86
2021/05/23 03:20:07;;;;;;;29.67;27.00;;;;;;;;;;4995662;28;20416;-86
2021/05/23 03:22:34;;;;;;;31.90;29.13;;;;;;;;;;4995298;28;20408;-85
2021/05/23 03:25:01;;;;;;;33.27;29.97;;;;;;;;;;4995595;28;20834;-86
2021/05/23 03:27:28;;;;;;;30.97;28.17;;;;;;;;;;4995509;28;20466;-85
2021/05/23 03:29:55;;;;;;;31.47;28.83;;;;;;;;;;4978381;28;20846;-85
2021/05/23 03:32:22;;;;;;;32.13;29.13;;;;;;;;;;4995600;28;20415;-85
2021/05/23 03:34:49;;;;;;;37.37;32.60;;;;;;;;;;4995410;28;20446;-85
2021/05/23 03:37:16;;;;;;;30.53;28.10;;;;;;;;;;4995145;28;20435;-85
2021/05/23 03:39:43;;;;;;;33.10;30.00;;;;;;;;;;4995041;28;20416;-85
2021/05/23 03:42:10;;;;;;;38.20;35.00;;;;;;;;;;4995375;28;20769;-85
2021/05/23 03:44:38;;;;;;;39.40;35.90;;;;;;;;;;4994831;28;20408;-85
2021/05/23 03:47:05;;;;;;;41.10;36.80;;;;;;;;;;4994874;28;20465;-86
2021/05/23 03:49:31;;;;;;;37.47;34.57;;;;;;;;;;4995183;28;20532;-84
2021/05/23 03:52:04;;;;;;;39.27;35.97;;;;;;;;;;4977819;28;20430;-85
2021/05/23 03:54:31;;;;;;;38.33;34.97;;;;;;;;;;4995220;28;20426;-85
2021/05/23 03:56:58;;;;;;;35.70;32.90;;;;;;;;;;4994774;28;20470;-85
2021/05/23 03:59:25;;;;;;;35.80;33.17;;;;;;;;;;4994766;28;20419;-86
2021/05/23 04:01:53;;;;;;;37.27;34.33;;;;;;;;;;4994795;28;20480;-85
2021/05/23 04:04:21;;;;;;;38.00;34.97;;;;;;;;;;4995288;28;20443;-85
2021/05/23 04:06:49;;;;;;;34.53;31.90;;;;;;;;;;4977582;28;20550;-83
2021/05/23 04:09:17;;;;;;;35.10;32.47;;;;;;;;;;4994669;28;20439;-83
2021/05/23 04:11:47;;;;;;;34.70;32.20;;;;;;;;;;4994806;28;20851;-83
2021/05/23 04:14:14;;;;;;;36.30;32.97;;;;;;;;;;4994715;28;20441;-86
2021/05/23 04:16:41;;;;;;;32.87;30.23;;;;;;;;;;4994998;28;20419;-85
2021/05/23 04:19:09;;;;;;;35.40;32.23;;;;;;;;;;4994818;28;20402;-83
2021/05/23 04:21:36;;;;;;;37.93;34.60;;;;;;;;;;4994215;28;20522;-84
2021/05/23 04:24:04;;;;;;;36.00;33.10;;;;;;;;;;4994513;28;20449;-84
2021/05/23 04:26:31;;;;;;;37.57;34.10;;;;;;;;;;4994417;28;20419;-86
2021/05/23 04:28:58;;;;;;;35.83;33.10;;;;;;;;;;4994714;28;20583;-86
2021/05/23 04:31:25;;;;;;;37.00;34.00;;;;;;;;;;4994801;28;20444;-86
2021/05/23 04:33:52;;;;;;;33.90;31.30;;;;;;;;;;4994501;28;20445;-86
2021/05/23 04:36:20;;;;;;;36.43;33.47;;;;;;;;;;4994976;28;20776;-86
2021/05/23 04:38:48;;;;;;;36.10;33.30;;;;;;;;;;4994265;28;20460;-84
2021/05/23 04:41:15;;;;;;;37.40;34.40;;;;;;;;;;4994316;28;20452;-84
2021/05/23 04:43:42;;;;;;;33.83;31.30;;;;;;;;;;4994466;28;20415;-83
2021/05/23 04:46:09;;;;;;;36.83;33.73;;;;;;;;;;4994350;28;20415;-86
2021/05/23 04:48:36;;;;;;;37.90;34.77;;;;;;;;;;4994438;28;20479;-85
2021/05/23 04:51:03;;;;;;;35.27;32.47;;;;;;;;;;4977181;28;20956;-83
2021/05/23 04:53:31;;;;;;;37.50;34.10;;;;;;;;;;4994063;28;20415;-84
2021/05/23 04:55:58;;;;;;;38.23;34.83;;;;;;;;;;4994490;28;20426;-81
2021/05/23 04:58:25;;;;;;;34.67;32.10;;;;;;;;;;4994311;28;20443;-82
2021/05/23 05:00:52;;;;;;;37.28;34.00;;;;;;;;;;4977124;28;20412;-83
2021/05/23 05:03:19;;;;;;;34.33;31.57;;;;;;;;;;4993975;28;20232;-81
2021/05/23 05:05:46;;;;;;;36.50;33.30;;;;;;;;;;4997066;28;20445;-84
2021/05/23 05:08:13;;;;;;;34.80;32.00;;;;;;;;;;4997971;28;20487;-84
2021/05/23 05:10:41;;;;;;;43.07;39.77;;;;;;;;;;4997500;28;20448;-83
2021/05/23 05:13:08;;;;;;;42.20;38.53;;;;;;;;;;4980549;28;20456;-82
2021/05/23 05:15:35;;;;;;;39.83;36.17;;;;;;;;;;4980571;28;20461;-82
2021/05/23 05:18:02;;;;;;;38.57;35.47;;;;;;;;;;4997609;28;20910;-85
2021/05/23 05:20:29;;;;;;;34.17;31.53;;;;;;;;;;4992005;28;20449;-90
2021/05/23 05:22:56;;;;;;;35.13;32.53;;;;;;;;;;5017260;28;20454;-85
2021/05/23 05:25:23;;;;;;;35.63;32.70;;;;;;;;;;5017054;28;20444;-83
2021/05/23 05:27:51;;;;;;;35.13;32.50;;;;;;;;;;5017046;28;20483;-84
2021/05/23 05:30:18;;;;;;;37.37;34.13;;;;;;;;;;5017608;28;21000;-87
2021/05/23 05:32:45;;;;;;;36.53;32.73;;;;;;;;;;5016910;28;20910;-87
2021/05/23 05:35:12;;;;;;;37.63;34.43;;;;;;;;;;5017388;28;20414;-90
2021/05/23 05:37:39;;;;;;;44.90;41.27;;;;;;;;;;4999827;28;20419;-80
2021/05/23 05:40:07;;;;;;;42.53;39.10;;;;;;;;;;5016370;28;20440;-84
2021/05/23 05:42:34;;;;;;;51.30;46.67;;;;;;;;;;4998556;28;20438;-80
2021/05/23 05:45:01;;;;;;;49.70;45.40;;;;;;;;;;5016572;28;20772;-81
2021/05/23 05:47:28;;;;;;;51.37;46.90;;;;;;;;;;5016483;28;20503;-81
2021/05/23 05:49:55;;;;;;;54.17;48.97;;;;;;;;;;5016433;28;20592;-81
2021/05/23 05:52:22;;;;;;;50.73;46.27;;;;;;;;;;5016257;28;20912;-81
2021/05/23 05:54:49;;;;;;;47.43;44.20;;;;;;;;;;5016416;28;20411;-81
2021/05/23 05:57:16;;;;;;;50.03;46.43;;;;;;;;;;5016365;28;20430;-81
2021/05/23 05:59:43;;;;;;;54.00;49.87;;;;;;;;;;5016254;28;20847;-80
2021/05/23 06:02:11;;;;;;;50.60;46.40;;;;;;;;;;4998279;28;20960;-81
2021/05/23 06:04:38;;;;;;;56.00;50.00;;;;;;;;;;5016323;28;20448;-81
2021/05/23 06:07:04;;;;;;;54.80;50.20;;;;;;;;;;5016095;28;20797;-81
2021/05/23 06:09:31;;;;;;;48.93;45.53;;;;;;;;;;5016129;28;20413;-81
2021/05/23 06:11:58;;;;;;;52.50;47.57;;;;;;;;;;5016151;28;20451;-81
2021/05/23 06:14:25;;;;;;;51.60;46.87;;;;;;;;;;5015774;28;20444;-82
2021/05/23 06:16:52;;;;;;;53.83;49.13;;;;;;;;;;5015408;28;20419;-81
2021/05/23 06:19:20;;;;;;;55.50;49.93;;;;;;;;;;5016067;28;20414;-82
2021/05/23 06:21:47;;;;;;;49.17;45.10;;;;;;;;;;5016297;28;20529;-81
2021/05/23 06:24:14;;;;;;;53.47;49.50;;;;;;;;;;5015611;28;20573;-81
2021/05/23 06:26:40;;;;;;;53.70;48.70;;;;;;;;;;5015691;28;20900;-82
2021/05/23 06:29:07;;;;;;;50.33;46.60;;;;;;;;;;5015721;28;20470;-81
2021/05/23 06:31:34;;;;;;;55.93;51.20;;;;;;;;;;5015754;28;20411;-81
2021/05/23 06:34:01;;;;;;;55.80;51.50;;;;;;;;;;5015258;28;20915;-81
2021/05/23 06:36:29;;;;;;;53.33;48.27;;;;;;;;;;5015635;28;20425;-82
2021/05/23 06:38:56;;;;;;;55.03;50.35;;;;;;;;;;5015590;28;20780;-81
2021/05/23 06:41:23;;;;;;;52.67;48.37;;;;;;;;;;5015807;28;20220;-82
2021/05/23 06:43:50;;;;;;;54.93;49.57;;;;;;;;;;5015607;28;20433;-82
2021/05/23 06:46:16;;;;;;;52.40;48.30;;;;;;;;;;5015641;28;20443;-83
2021/05/23 06:48:43;;;;;;;59.73;54.00;;;;;;;;;;5014919;28;20503;-81
2021/05/23 06:51:10;;;;;;;63.20;54.23;;;;;;;;;;4998053;28;20425;-81
2021/05/23 06:53:39;;;;;;;54.97;50.57;;;;;;;;;;5015201;28;20757;-81
2021/05/23 06:56:06;;;;;;;54.97;50.37;;;;;;;;;;5015491;28;20789;-82
2021/05/23 06:58:33;;;;;;;58.00;52.30;;;;;;;;;;5014947;28;20422;-82
2021/05/23 07:01:00;;;;;;;55.77;50.77;;;;;;;;;;5015342;28;20447;-82
2021/05/23 07:03:27;;;;;;;57.67;52.53;;;;;;;;;;5014798;28;20453;-82
2021/05/23 07:05:54;;;;;;;60.37;54.17;;;;;;;;;;5015084;28;20897;-82
2021/05/23 07:08:20;;;;;;;57.30;52.63;;;;;;;;;;4997771;28;20473;-83
2021/05/23 07:10:48;;;;;;;63.20;56.80;;;;;;;;;;5015193;28;20477;-84
2021/05/23 07:13:16;;;;;;;64.90;57.70;;;;;;;;;;5015342;28;20870;-83
2021/05/23 07:15:42;;;;;;;61.70;55.60;;;;;;;;;;5015157;28;20455;-83
2021/05/23 07:18:09;;;;;;;63.73;58.00;;;;;;;;;;5015139;28;20811;-82
2021/05/23 07:20:36;;;;;;;60.13;53.90;;;;;;;;;;5014645;28;20426;-83
2021/05/23 07:23:03;;;;;;;68.03;61.43;;;;;;;;;;5014559;28;20439;-83
2021/05/23 07:25:30;;;;;;;60.07;55.07;;;;;;;;;;5014877;28;20415;-83
2021/05/23 07:27:58;;;;;;;61.40;56.23;;;;;;;;;;5014145;28;20470;-83
2021/05/23 07:30:25;;;;;;;76.97;60.80;;;;;;;;;;5014775;28;20422;-82
2021/05/23 07:32:52;;;;;;;63.23;57.33;;;;;;;;;;5014277;28;20459;-83
2021/05/23 07:35:19;;;;;;;64.03;57.97;;;;;;;;;;5014740;28;20824;-83
2021/05/23 07:37:46;;;;;;;60.33;54.83;;;;;;;;;;5014825;28;20774;-83
2021/05/23 07:40:13;;;;;;;57.40;52.33;;;;;;;;;;5014430;28;20778;-83
2021/05/23 07:42:42;;;;;;;56.90;52.20;;;;;;;;;;5014461;28;20443;-82
2021/05/23 07:45:10;;;;;;;55.87;51.37;;;;;;;;;;4997615;28;20543;-83
2021/05/23 07:47:37;;;;;;;54.43;50.50;;;;;;;;;;5014314;28;20495;-84
2021/05/23 07:50:05;;;;;;;52.63;49.07;;;;;;;;;;5014749;28;20419;-83
2021/05/23 07:52:32;;;;;;;52.47;48.70;;;;;;;;;;5014596;28;20444;-84
2021/05/23 07:54:59;;;;;;;53.77;49.87;;;;;;;;;;5014669;28;20827;-83
2021/05/23 07:57:27;;;;;;;52.10;48.03;;;;;;;;;;5014582;28;20514;-84
2021/05/23 07:59:54;;;;;;;52.57;48.53;;;;;;;;;;5014261;28;20440;-83
2021/05/23 08:02:22;;;;;;;54.60;49.60;;;;;;;;;;4996442;28;20465;-83
2021/05/23 08:04:49;;;;;;;54.10;50.30;;;;;;;;;;5014444;28;20440;-82
2021/05/23 08:07:16;;;;;;;53.47;49.93;;;;;;;;;;5014063;28;20489;-83
2021/05/23 08:09:43;;;;;;;56.87;52.90;;;;;;;;;;5014104;28;20769;-83
2021/05/23 08:12:10;;;;;;;55.20;51.80;;;;;;;;;;5014094;28;20436;-83
2021/05/23 08:14:36;;;;;;;54.00;49.67;;;;;;;;;;5014288;28;20414;-83
2021/05/23 08:17:03;;;;;;;54.90;51.07;;;;;;;;;;5014227;28;20436;-83
2021/05/23 08:19:31;;;;;;;49.53;46.13;;;;;;;;;;5013994;28;20435;-83
2021/05/23 08:21:58;;;;;;;45.33;42.60;;;;;;;;;;5014251;28;20425;-84
2021/05/23 08:24:26;;;;;;;49.77;46.47;;;;;;;;;;5014252;28;20446;-83
2021/05/23 08:26:52;;;;;;;48.23;45.33;;;;;;;;;;5014363;28;20415;-85
2021/05/23 08:29:19;;;;;;;52.63;48.70;;;;;;;;;;5014153;28;20454;-84
2021/05/23 08:31:46;;;;;;;47.63;44.40;;;;;;;;;;5014207;28;20418;-84
2021/05/23 08:34:17;;;;;;;45.57;42.77;;;;;;;;;;5013886;28;20452;-84
2021/05/23 08:36:45;;;;;;;45.77;42.97;;;;;;;;;;5014063;28;20411;-84
2021/05/23 08:39:11;;;;;;;47.40;44.60;;;;;;;;;;4998932;28;20414;-84
2021/05/23 08:41:38;;;;;;;43.70;41.07;;;;;;;;;;5000740;28;20426;-84
2021/05/23 08:44:05;;;;;;;44.73;42.33;;;;;;;;;;5017838;28;20983;-84
2021/05/23 08:46:33;;;;;;;45.93;43.23;;;;;;;;;;5017956;28;20448;-85
2021/05/23 08:49:01;;;;;;;46.87;44.33;;;;;;;;;;5017979;28;20466;-84
2021/05/23 08:51:28;;;;;;;46.50;43.90;;;;;;;;;;5017300;28;20459;-84
2021/05/23 08:53:56;;;;;;;48.93;45.83;;;;;;;;;;4984542;28;20455;-84
2021/05/23 08:56:23;;;;;;;46.83;43.93;;;;;;;;;;5017493;28;20427;-83
2021/05/23 08:58:50;;;;;;;46.80;44.30;;;;;;;;;;5017512;28;20452;-84
2021/05/23 09:01:26;;;;;;;46.43;43.90;;;;;;;;;;5017502;28;20422;-84
2021/05/23 09:03:57;;;;;;;47.27;44.67;;;;;;;;;;5017798;28;20421;-85
2021/05/23 09:06:28;;;;;;;46.43;43.67;;;;;;;;;;4999982;28;20957;-88
2021/05/23 09:08:59;;;;;;;48.40;45.40;;;;;;;;;;5017708;28;20476;-85
2021/05/23 09:11:26;;;;;;;44.43;41.83;;;;;;;;;;5019833;28;20406;-85
2021/05/23 09:13:54;;;;;;;44.10;41.37;;;;;;;;;;4999379;28;20423;-87
2021/05/23 09:16:21;;;;;;;45.87;43.17;;;;;;;;;;4997796;28;20411;-86
2021/05/23 09:18:48;;;;;;;47.17;44.17;;;;;;;;;;4998205;28;20444;-87
2021/05/23 09:21:16;;;;;;;44.37;41.20;;;;;;;;;;4997926;28;20423;-87
2021/05/23 09:23:48;;;;;;;50.33;47.23;;;;;;;;;;4997999;28;20503;-87
2021/05/23 09:26:21;;;;;;;51.77;48.10;;;;;;;;;;4998019;28;20406;-88
2021/05/23 09:28:49;;;;;;;49.30;45.97;;;;;;;;;;4997570;28;20999;-87
2021/05/23 09:31:17;;;;;;;46.53;43.53;;;;;;;;;;4997816;28;20411;-87
2021/05/23 09:33:45;;;;;;;56.50;52.27;;;;;;;;;;4980494;28;20497;-86
2021/05/23 09:36:12;;;;;;;56.37;51.93;;;;;;;;;;4997642;28;20438;-85
2021/05/23 09:38:41;;;;;;;56.47;51.97;;;;;;;;;;4997718;28;20458;-86
2021/05/23 09:41:19;;;;;;;56.67;52.10;;;;;;;;;;4997792;28;20445;-86
2021/05/23 09:43:46;;;;;;;52.77;48.93;;;;;;;;;;4997600;28;20479;-85
2021/05/23 09:46:13;;;;;;;51.20;47.10;;;;;;;;;;4997562;28;20439;-87
2021/05/23 09:48:48;;;;;;;52.77;48.07;;;;;;;;;;4976062;28;20487;-87
2021/05/23 09:51:17;;;;;;;51.50;47.73;;;;;;;;;;4977388;28;20416;-88
2021/05/23 09:53:45;;;;;;;49.80;45.93;;;;;;;;;;4977882;28;20446;-86
2021/05/23 09:56:13;;;;;;;52.30;48.30;;;;;;;;;;4977696;28;20416;-87
2021/05/23 09:58:41;;;;;;;47.90;44.40;;;;;;;;;;4977489;28;20886;-87
2021/05/23 10:01:09;;;;;;;50.93;47.23;;;;;;;;;;4977879;28;20446;-86
2021/05/23 10:03:37;;;;;;;46.27;42.73;;;;;;;;;;4977576;28;20421;-84
2021/05/23 10:06:06;;;;;;;49.17;45.73;;;;;;;;;;4977312;28;20416;-87
2021/05/23 10:08:33;;;;;;;49.27;45.43;;;;;;;;;;4977532;28;20470;-86
2021/05/23 10:11:00;;;;;;;47.83;44.40;;;;;;;;;;4976736;28;20482;-86
2021/05/23 10:13:27;;;;;;;47.67;43.60;;;;;;;;;;4977723;28;20638;-86
2021/05/23 10:15:56;;;;;;;46.20;43.10;;;;;;;;;;4977314;28;20497;-88
2021/05/23 10:18:28;;;;;;;45.90;42.80;;;;;;;;;;4977296;28;20537;-88
2021/05/23 10:20:55;;;;;;;43.60;40.80;;;;;;;;;;4977888;28;20831;-90
2021/05/23 10:23:24;;;;;;;46.23;42.57;;;;;;;;;;4977583;28;20462;-89
2021/05/23 10:25:52;;;;;;;43.30;40.10;;;;;;;;;;4977862;28;20917;-89
2021/05/23 10:28:19;;;;;;;44.50;41.70;;;;;;;;;;4977693;28;20496;-88
2021/05/23 10:30:47;;;;;;;43.40;40.10;;;;;;;;;;4978198;28;20435;-89
2021/05/23 10:33:16;;;;;;;42.80;40.13;;;;;;;;;;4977410;28;20421;-89
2021/05/23 10:35:43;;;;;;;41.70;38.37;;;;;;;;;;4977390;28;20420;-88
2021/05/23 10:38:11;;;;;;;39.20;36.73;;;;;;;;;;4977912;28;20398;-87
2021/05/23 10:40:50;;;;;;;37.37;35.10;;;;;;;;;;4975922;28;20458;-89
2021/05/23 10:43:21;;;;;;;32.33;30.30;;;;;;;;;;4977330;28;20432;-89
2021/05/23 10:45:47;;;;;;;33.23;30.83;;;;;;;;;;4977095;28;20868;-88
2021/05/23 10:48:16;;;;;;;32.93;30.60;;;;;;;;;;4991415;28;20969;-89
2021/05/23 10:50:44;;;;;;;32.50;30.60;;;;;;;;;;4996970;28;20419;-92
2021/05/23 10:53:12;;;;;;;29.63;27.90;;;;;;;;;;4996223;28;20469;-89
2021/05/23 10:55:48;;;;;;;28.33;26.53;;;;;;;;;;4995881;28;20479;-88
2021/05/23 10:58:22;;;;;;;22.97;21.57;;;;;;;;;;4995868;28;20428;-89
2021/05/23 11:00:52;;;;;;;22.43;21.30;;;;;;;;;;4995738;28;20440;-89
2021/05/23 11:03:23;;;;;;;22.90;21.10;;;;;;;;;;4994686;28;20882;-89
2021/05/23 11:06:00;;;;;;;23.53;22.13;;;;;;;;;;4995840;28;20941;-89
2021/05/23 11:08:29;;;;;;;19.57;18.57;;;;;;;;;;4996150;28;20463;-91
2021/05/23 11:10:56;;;;;;;20.97;19.87;;;;;;;;;;4995898;28;20412;-90
2021/05/23 11:13:30;;;;;;;21.63;20.53;;;;;;;;;;4978566;28;20428;-81
2021/05/23 11:16:09;;;;;;;21.80;20.40;;;;;;;;;;4995239;28;20419;-78
2021/05/23 11:18:36;;;;;;;21.90;20.57;;;;;;;;;;4995473;28;20446;-80
2021/05/23 11:21:05;;;;;;;20.17;19.03;;;;;;;;;;4995165;28;20445;-77
2021/05/23 11:23:33;;;;;;;20.40;19.30;;;;;;;;;;4995185;28;20472;-77
2021/05/23 11:26:03;;;;;;;20.00;18.90;;;;;;;;;;4995113;28;20906;-77
2021/05/23 11:28:30;;;;;;;19.87;18.77;;;;;;;;;;4994758;28;20492;-76
2021/05/23 11:30:57;;;;;;;21.13;19.73;;;;;;;;;;4995026;28;20416;-76
2021/05/23 11:33:24;;;;;;;20.93;19.40;;;;;;;;;;4994936;28;20455;-77
2021/05/23 11:35:53;;;;;;;20.00;18.73;;;;;;;;;;4994947;28;20416;-78
2021/05/23 11:38:20;;;;;;;20.43;19.03;;;;;;;;;;4994833;28;20450;-83
2021/05/23 11:40:47;;;;;;;21.43;19.87;;;;;;;;;;4995015;28;20811;-77
2021/05/23 11:43:16;;;;;;;20.10;19.00;;;;;;;;;;4994832;28;20413;-78
2021/05/23 11:45:55;;;;;;;20.10;18.90;;;;;;;;;;4994758;28;20920;-77
2021/05/23 11:48:30;;;;;;;20.57;19.17;;;;;;;;;;4994146;28;20516;-77
2021/05/23 11:50:58;;;;;;;20.20;18.90;;;;;;;;;;4994388;28;20445;-80
2021/05/23 11:53:35;;;;;;;21.07;19.57;;;;;;;;;;4994889;28;20444;-82
2021/05/23 11:56:02;;;;;;;20.30;19.10;;;;;;;;;;4977591;28;20923;-84
2021/05/23 11:58:29;;;;;;;20.90;19.70;;;;;;;;;;4994307;28;20438;-81
2021/05/23 12:01:07;;;;;;;20.73;19.27;;;;;;;;;;4994505;28;20906;-81
2021/05/23 12:03:34;;;;;;;20.17;19.00;;;;;;;;;;4977203;28;20420;-83
2021/05/23 12:06:02;;;;;;;21.43;20.07;;;;;;;;;;4977246;28;20412;-82
2021/05/23 12:08:29;;;;;;;20.37;19.20;;;;;;;;;;4994132;28;20805;-81
2021/05/23 12:11:03;;;;;;;21.20;19.90;;;;;;;;;;4994503;28;20413;-80
2021/05/23 12:13:39;;;;;;;19.90;18.80;;;;;;;;;;4994006;28;20428;-79
2021/05/23 12:16:07;;;;;;;20.07;18.77;;;;;;;;;;4994427;28;20423;-79
2021/05/23 12:18:34;;;;;;;20.27;18.93;;;;;;;;;;4994185;28;20437;-79
2021/05/23 12:21:02;;;;;;;21.33;19.40;;;;;;;;;;4994127;28;20894;-84
2021/05/23 12:23:29;;;;;;;21.30;20.03;;;;;;;;;;4994940;28;20470;-84
2021/05/23 12:25:56;;;;;;;22.80;21.10;;;;;;;;;;4994891;28;20453;-84
2021/05/23 12:28:23;;;;;;;21.10;19.90;;;;;;;;;;4994642;28;20467;-85
2021/05/23 12:31:00;;;;;;;21.70;20.40;;;;;;;;;;4994900;28;20924;-85
2021/05/23 12:33:27;;;;;;;22.17;20.87;;;;;;;;;;4994632;28;20408;-85
2021/05/23 12:35:54;;;;;;;20.53;19.33;;;;;;;;;;4994223;28;20817;-85
2021/05/23 12:38:22;;;;;;;21.47;19.97;;;;;;;;;;4977266;28;20453;-84
2021/05/23 12:40:50;;;;;;;21.37;20.07;;;;;;;;;;4994717;28;20816;-84
2021/05/23 12:43:18;;;;;;;20.73;19.50;;;;;;;;;;4994403;28;20559;-86
2021/05/23 12:45:45;;;;;;;21.77;20.47;;;;;;;;;;4994603;28;20789;-84
2021/05/23 12:48:13;;;;;;;21.90;20.40;;;;;;;;;;4994200;28;20471;-84
2021/05/23 12:50:41;;;;;;;21.07;19.63;;;;;;;;;;4993372;28;20462;-83
2021/05/23 12:53:09;;;;;;;21.97;20.43;;;;;;;;;;4994198;28;20412;-84
2021/05/23 12:55:41;;;;;;;20.70;19.50;;;;;;;;;;4994371;28;20417;-83
2021/05/23 12:58:09;;;;;;;21.37;20.07;;;;;;;;;;4977247;28;20444;-83
2021/05/23 13:00:39;;;;;;;22.27;20.77;;;;;;;;;;4994096;28;20416;-82
2021/05/23 13:03:07;;;;;;;21.47;20.20;;;;;;;;;;4976440;28;20507;-89
2021/05/23 13:05:34;;;;;;;20.70;19.40;;;;;;;;;;5002985;28;20455;-83
2021/05/23 13:08:01;;;;;;;20.07;18.97;;;;;;;;;;5013905;28;20493;-82
2021/05/23 13:10:33;;;;;;;20.80;19.50;;;;;;;;;;4996301;28;20448;-83
2021/05/23 13:13:02;;;;;;;21.90;20.40;;;;;;;;;;5013385;28;20443;-83
2021/05/23 13:15:30;;;;;;;21.10;19.87;;;;;;;;;;5013710;28;20950;-83
2021/05/23 13:17:58;;;;;;;22.10;20.60;;;;;;;;;;5013621;28;20536;-84
2021/05/23 13:20:29;;;;;;;22.37;20.90;;;;;;;;;;5013594;28;20452;-80
2021/05/23 13:22:56;;;;;;;22.97;21.27;;;;;;;;;;5013278;28;20805;-80
2021/05/23 13:25:25;;;;;;;21.27;19.97;;;;;;;;;;4996472;28;20423;-80
2021/05/23 13:27:52;;;;;;;21.83;20.37;;;;;;;;;;5016854;28;20816;-80
2021/05/23 13:30:20;;;;;;;21.17;19.77;;;;;;;;;;5016618;28;20415;-80
2021/05/23 13:32:48;;;;;;;20.13;19.03;;;;;;;;;;5016441;28;20439;-80
2021/05/23 13:35:16;;;;;;;20.70;19.20;;;;;;;;;;5016497;28;20420;-79
2021/05/23 13:37:43;;;;;;;21.47;20.03;;;;;;;;;;4999409;28;20998;-81
2021/05/23 13:40:11;;;;;;;21.70;20.30;;;;;;;;;;5016700;28;20435;-81
2021/05/23 13:42:38;;;;;;;22.70;21.03;;;;;;;;;;5017169;28;20416;-81
2021/05/23 13:45:07;;;;;;;21.30;20.00;;;;;;;;;;5016664;28;20486;-81
2021/05/23 13:47:36;;;;;;;22.57;21.07;;;;;;;;;;5016258;28;20536;-80
2021/05/23 13:50:04;;;;;;;22.10;20.50;;;;;;;;;;5016476;28;20446;-81
2021/05/23 13:52:31;;;;;;;21.50;20.20;;;;;;;;;;5016089;28;20449;-80
2021/05/23 13:54:58;;;;;;;21.20;19.70;;;;;;;;;;5016131;28;20445;-81
2021/05/23 13:57:25;;;;;;;22.00;20.40;;;;;;;;;;5016479;28;20436;-82
2021/05/23 13:59:51;;;;;;;21.97;20.57;;;;;;;;;;5016179;28;20443;-81
2021/05/23 14:02:18;;;;;;;21.53;20.03;;;;;;;;;;5015941;28;21047;-81
2021/05/23 14:04:49;;;;;;;22.23;20.80;;;;;;;;;;5016106;28;20506;-81
2021/05/23 14:07:16;;;;;;;22.70;20.97;;;;;;;;;;5016446;28;20436;-82
2021/05/23 14:09:43;;;;;;;21.73;20.37;;;;;;;;;;5016058;28;20493;-81
2021/05/23 14:12:10;;;;;;;21.53;20.03;;;;;;;;;;5015055;28;20486;-81
2021/05/23 14:14:37;;;;;;;21.73;20.23;;;;;;;;;;5015552;28;20423;-81
2021/05/23 14:17:04;;;;;;;21.00;19.73;;;;;;;;;;5015296;28;20420;-81
2021/05/23 14:19:31;;;;;;;21.93;20.43;;;;;;;;;;5015719;28;20474;-80
2021/05/23 14:21:59;;;;;;;22.37;20.97;;;;;;;;;;5016485;28;20416;-81